sensor_id;sensor_type;location;lat;lon;timestamp;pressure;altitude;pressure_sealevel;temperature;humidity
50632;BME280;49583;45.590;-122.498;2023-01-29T00:00:53;101365.90;;;7.86;76.78
50632;BME280;49583;45.590;-122.498;2023-01-29T00:03:17;101380.61;;;7.75;75.99
50632;BME280;49583;45.590;-122.498;2023-01-29T00:05:30;101377.23;;;7.57;75.26
50632;BME280;49583;45.590;-122.498;2023-01-29T00:07:43;101380.46;;;7.39;75.23
50632;BME280;49583;45.590;-122.498;2023-01-29T00:10:02;101384.13;;;7.25;75.34
50632;BME280;49583;45.590;-122.498;2023-01-29T00:12:15;101388.60;;;7.14;75.16
50632;BME280;49583;45.590;-122.498;2023-01-29T00:14:28;101393.90;;;7.03;74.85
50632;BME280;49583;45.590;-122.498;2023-01-29T00:16:41;101400.22;;;6.90;74.10
50632;BME280;49583;45.590;-122.498;2023-01-29T00:18:56;101396.77;;;6.73;73.90
50632;BME280;49583;45.590;-122.498;2023-01-29T00:21:12;101400.55;;;6.53;73.14
50632;BME280;49583;45.590;-122.498;2023-01-29T00:23:26;101396.19;;;6.31;73.44
50632;BME280;49583;45.590;-122.498;2023-01-29T00:25:39;101394.44;;;6.19;74.16
50632;BME280;49583;45.590;-122.498;2023-01-29T00:27:53;101385.87;;;6.08;74.24
50632;BME280;49583;45.590;-122.498;2023-01-29T00:30:13;101383.77;;;6.01;74.46
50632;BME280;49583;45.590;-122.498;2023-01-29T00:32:29;101381.55;;;5.92;74.46
50632;BME280;49583;45.590;-122.498;2023-01-29T00:34:43;101383.83;;;5.82;74.38
50632;BME280;49583;45.590;-122.498;2023-01-29T00:36:58;101381.52;;;5.72;74.03
50632;BME280;49583;45.590;-122.498;2023-01-29T00:39:15;101381.14;;;5.64;74.09
50632;BME280;49583;45.590;-122.498;2023-01-29T00:41:45;101383.94;;;5.53;74.04
50632;BME280;49583;45.590;-122.498;2023-01-29T00:44:14;101383.30;;;5.43;73.89
50632;BME280;49583;45.590;-122.498;2023-01-29T00:46:44;101384.02;;;5.34;74.06
50632;BME280;49583;45.590;-122.498;2023-01-29T00:48:58;101383.58;;;5.29;74.20
50632;BME280;49583;45.590;-122.498;2023-01-29T00:51:16;101383.95;;;5.24;74.23
50632;BME280;49583;45.590;-122.498;2023-01-29T00:53:29;101382.70;;;5.20;74.29
50632;BME280;49583;45.590;-122.498;2023-01-29T00:55:43;101384.19;;;5.14;74.04
50632;BME280;49583;45.590;-122.498;2023-01-29T00:57:56;101384.77;;;5.13;74.13
50632;BME280;49583;45.590;-122.498;2023-01-29T01:00:13;101384.62;;;5.10;74.40
50632;BME280;49583;45.590;-122.498;2023-01-29T01:02:31;101386.88;;;5.08;74.15
50632;BME280;49583;45.590;-122.498;2023-01-29T01:04:58;101385.93;;;5.04;73.45
50632;BME280;49583;45.590;-122.498;2023-01-29T01:07:12;101382.32;;;5.00;73.78
50632;BME280;49583;45.590;-122.498;2023-01-29T01:09:24;101382.60;;;4.97;73.65
50632;BME280;49583;45.590;-122.498;2023-01-29T01:11:54;101379.64;;;4.93;73.33
50632;BME280;49583;45.590;-122.498;2023-01-29T01:14:08;101387.88;;;4.91;73.45
50632;BME280;49583;45.590;-122.498;2023-01-29T01:16:24;101390.41;;;4.89;73.76
50632;BME280;49583;45.590;-122.498;2023-01-29T01:18:37;101390.75;;;4.89;73.38
50632;BME280;49583;45.590;-122.498;2023-01-29T01:20:55;101392.05;;;4.87;73.34
50632;BME280;49583;45.590;-122.498;2023-01-29T01:23:09;101393.23;;;4.85;73.57
50632;BME280;49583;45.590;-122.498;2023-01-29T01:25:22;101391.63;;;4.86;73.37
50632;BME280;49583;45.590;-122.498;2023-01-29T01:27:37;101395.66;;;4.86;72.83
50632;BME280;49583;45.590;-122.498;2023-01-29T01:29:50;101393.06;;;4.85;72.95
50632;BME280;49583;45.590;-122.498;2023-01-29T01:32:06;101397.23;;;4.86;72.97
50632;BME280;49583;45.590;-122.498;2023-01-29T01:34:25;101397.55;;;4.86;72.54
50632;BME280;49583;45.590;-122.498;2023-01-29T01:36:38;101393.55;;;4.86;72.68
50632;BME280;49583;45.590;-122.498;2023-01-29T01:38:51;101397.61;;;4.88;72.87
50632;BME280;49583;45.590;-122.498;2023-01-29T01:41:07;101409.70;;;4.86;72.46
50632;BME280;49583;45.590;-122.498;2023-01-29T01:43:21;101403.56;;;4.84;71.91
50632;BME280;49583;45.590;-122.498;2023-01-29T01:45:35;101409.45;;;4.82;72.31
50632;BME280;49583;45.590;-122.498;2023-01-29T01:47:50;101415.25;;;4.80;72.17
50632;BME280;49583;45.590;-122.498;2023-01-29T01:50:09;101419.60;;;4.78;72.27
50632;BME280;49583;45.590;-122.498;2023-01-29T01:52:27;101422.55;;;4.77;72.40
50632;BME280;49583;45.590;-122.498;2023-01-29T01:54:41;101425.52;;;4.75;72.82
50632;BME280;49583;45.590;-122.498;2023-01-29T01:56:59;101431.67;;;4.76;72.80
50632;BME280;49583;45.590;-122.498;2023-01-29T01:59:19;101433.11;;;4.74;72.47
50632;BME280;49583;45.590;-122.498;2023-01-29T02:01:33;101441.23;;;4.73;72.73
50632;BME280;49583;45.590;-122.498;2023-01-29T02:03:55;101444.50;;;4.72;72.91
50632;BME280;49583;45.590;-122.498;2023-01-29T02:06:25;101449.60;;;4.70;72.07
50632;BME280;49583;45.590;-122.498;2023-01-29T02:08:59;101451.24;;;4.69;72.49
50632;BME280;49583;45.590;-122.498;2023-01-29T02:11:31;101458.48;;;4.67;72.35
50632;BME280;49583;45.590;-122.498;2023-01-29T02:13:44;101458.70;;;4.64;72.23
50632;BME280;49583;45.590;-122.498;2023-01-29T02:16:07;101468.12;;;4.64;72.50
50632;BME280;49583;45.590;-122.498;2023-01-29T02:18:22;101473.78;;;4.62;72.61
50632;BME280;49583;45.590;-122.498;2023-01-29T02:20:35;101473.56;;;4.62;72.87
50632;BME280;49583;45.590;-122.498;2023-01-29T02:23:11;101481.77;;;4.61;72.92
50632;BME280;49583;45.590;-122.498;2023-01-29T02:26:00;101486.55;;;4.61;72.93
50632;BME280;49583;45.590;-122.498;2023-01-29T02:28:20;101489.20;;;4.61;72.85
50632;BME280;49583;45.590;-122.498;2023-01-29T02:30:39;101499.96;;;4.63;73.11
50632;BME280;49583;45.590;-122.498;2023-01-29T02:32:58;101508.87;;;4.63;72.91
50632;BME280;49583;45.590;-122.498;2023-01-29T02:35:22;101508.27;;;4.63;72.92
50632;BME280;49583;45.590;-122.498;2023-01-29T02:37:41;101513.50;;;4.64;73.04
50632;BME280;49583;45.590;-122.498;2023-01-29T02:40:06;101519.33;;;4.66;73.05
50632;BME280;49583;45.590;-122.498;2023-01-29T02:42:24;101523.15;;;4.68;73.02
50632;BME280;49583;45.590;-122.498;2023-01-29T02:44:42;101531.48;;;4.70;72.87
50632;BME280;49583;45.590;-122.498;2023-01-29T02:47:03;101534.08;;;4.71;72.49
50632;BME280;49583;45.590;-122.498;2023-01-29T02:49:25;101542.77;;;4.69;72.32
50632;BME280;49583;45.590;-122.498;2023-01-29T02:51:40;101552.30;;;4.71;72.22
50632;BME280;49583;45.590;-122.498;2023-01-29T02:54:05;101555.83;;;4.71;72.25
50632;BME280;49583;45.590;-122.498;2023-01-29T02:56:21;101562.64;;;4.72;72.14
50632;BME280;49583;45.590;-122.498;2023-01-29T02:58:41;101560.72;;;4.73;72.27
50632;BME280;49583;45.590;-122.498;2023-01-29T03:01:03;101567.93;;;4.76;71.98
50632;BME280;49583;45.590;-122.498;2023-01-29T03:03:21;101566.67;;;4.77;71.72
50632;BME280;49583;45.590;-122.498;2023-01-29T03:05:42;101575.20;;;4.77;71.71
50632;BME280;49583;45.590;-122.498;2023-01-29T03:08:04;101577.48;;;4.73;71.15
50632;BME280;49583;45.590;-122.498;2023-01-29T03:10:22;101580.13;;;4.74;71.22
50632;BME280;49583;45.590;-122.498;2023-01-29T03:12:39;101584.25;;;4.72;70.95
50632;BME280;49583;45.590;-122.498;2023-01-29T03:14:53;101581.10;;;4.72;70.83
50632;BME280;49583;45.590;-122.498;2023-01-29T03:17:42;101577.16;;;4.70;70.60
50632;BME280;49583;45.590;-122.498;2023-01-29T03:20:01;101578.09;;;4.70;70.71
50632;BME280;49583;45.590;-122.498;2023-01-29T03:22:18;101581.30;;;4.70;70.36
50632;BME280;49583;45.590;-122.498;2023-01-29T03:24:38;101577.52;;;4.69;70.23
50632;BME280;49583;45.590;-122.498;2023-01-29T03:27:13;101579.01;;;4.63;69.43
50632;BME280;49583;45.590;-122.498;2023-01-29T03:29:43;101578.24;;;4.60;69.32
50632;BME280;49583;45.590;-122.498;2023-01-29T03:32:37;101572.95;;;4.56;69.31
50632;BME280;49583;45.590;-122.498;2023-01-29T03:34:57;101574.96;;;4.52;69.07
50632;BME280;49583;45.590;-122.498;2023-01-29T03:37:17;101574.39;;;4.48;68.62
50632;BME280;49583;45.590;-122.498;2023-01-29T03:39:35;101570.64;;;4.45;68.19
50632;BME280;49583;45.590;-122.498;2023-01-29T03:41:52;101570.55;;;4.43;67.96
50632;BME280;49583;45.590;-122.498;2023-01-29T03:44:11;101574.08;;;4.41;68.16
50632;BME280;49583;45.590;-122.498;2023-01-29T03:46:30;101571.61;;;4.38;67.82
50632;BME280;49583;45.590;-122.498;2023-01-29T03:48:49;101581.45;;;4.37;68.10
50632;BME280;49583;45.590;-122.498;2023-01-29T03:51:14;101579.00;;;4.38;68.05
50632;BME280;49583;45.590;-122.498;2023-01-29T03:53:37;101581.88;;;4.37;68.14
50632;BME280;49583;45.590;-122.498;2023-01-29T03:55:59;101576.62;;;4.37;67.31
50632;BME280;49583;45.590;-122.498;2023-01-29T03:58:22;101577.83;;;4.36;67.36
50632;BME280;49583;45.590;-122.498;2023-01-29T04:00:44;101588.72;;;4.33;66.58
50632;BME280;49583;45.590;-122.498;2023-01-29T04:03:10;101583.96;;;4.29;67.12
50632;BME280;49583;45.590;-122.498;2023-01-29T04:05:27;101592.15;;;4.29;66.94
50632;BME280;49583;45.590;-122.498;2023-01-29T04:07:58;101592.22;;;4.27;66.72
50632;BME280;49583;45.590;-122.498;2023-01-29T04:10:15;101594.63;;;4.26;66.33
50632;BME280;49583;45.590;-122.498;2023-01-29T04:12:34;101600.67;;;4.25;65.60
50632;BME280;49583;45.590;-122.498;2023-01-29T04:14:53;101598.33;;;4.25;66.13
50632;BME280;49583;45.590;-122.498;2023-01-29T04:17:14;101604.75;;;4.27;66.11
50632;BME280;49583;45.590;-122.498;2023-01-29T04:19:45;101611.21;;;4.26;64.45
50632;BME280;49583;45.590;-122.498;2023-01-29T04:22:05;101612.08;;;4.23;64.44
50632;BME280;49583;45.590;-122.498;2023-01-29T04:24:19;101615.64;;;4.20;64.26
50632;BME280;49583;45.590;-122.498;2023-01-29T04:26:48;101619.23;;;4.16;63.70
50632;BME280;49583;45.590;-122.498;2023-01-29T04:29:12;101618.58;;;4.13;63.17
50632;BME280;49583;45.590;-122.498;2023-01-29T04:31:31;101617.20;;;4.10;63.24
50632;BME280;49583;45.590;-122.498;2023-01-29T04:33:57;101625.50;;;4.06;62.49
50632;BME280;49583;45.590;-122.498;2023-01-29T04:36:29;101617.45;;;4.03;62.85
50632;BME280;49583;45.590;-122.498;2023-01-29T04:38:53;101626.23;;;4.01;62.67
50632;BME280;49583;45.590;-122.498;2023-01-29T04:41:13;101627.89;;;3.98;62.79
50632;BME280;49583;45.590;-122.498;2023-01-29T04:43:34;101626.30;;;3.95;61.36
50632;BME280;49583;45.590;-122.498;2023-01-29T04:45:59;101626.13;;;3.93;61.45
50632;BME280;49583;45.590;-122.498;2023-01-29T04:48:23;101628.63;;;3.91;61.30
50632;BME280;49583;45.590;-122.498;2023-01-29T04:50:43;101626.70;;;3.90;60.82
50632;BME280;49583;45.590;-122.498;2023-01-29T04:53:03;101636.82;;;3.86;60.49
50632;BME280;49583;45.590;-122.498;2023-01-29T04:55:27;101644.33;;;3.84;59.11
50632;BME280;49583;45.590;-122.498;2023-01-29T04:57:52;101644.93;;;3.83;59.91
50632;BME280;49583;45.590;-122.498;2023-01-29T05:00:05;101653.52;;;3.82;59.19
50632;BME280;49583;45.590;-122.498;2023-01-29T05:02:23;101656.90;;;3.79;58.18
50632;BME280;49583;45.590;-122.498;2023-01-29T05:04:39;101663.71;;;3.77;57.71
50632;BME280;49583;45.590;-122.498;2023-01-29T05:06:54;101671.15;;;3.75;57.24
50632;BME280;49583;45.590;-122.498;2023-01-29T05:09:10;101680.64;;;3.74;57.42
50632;BME280;49583;45.590;-122.498;2023-01-29T05:11:25;101681.75;;;3.72;58.46
50632;BME280;49583;45.590;-122.498;2023-01-29T05:13:41;101681.64;;;3.69;58.06
50632;BME280;49583;45.590;-122.498;2023-01-29T05:15:59;101687.27;;;3.69;58.38
50632;BME280;49583;45.590;-122.498;2023-01-29T05:18:13;101687.34;;;3.66;57.01
50632;BME280;49583;45.590;-122.498;2023-01-29T05:20:32;101689.70;;;3.64;57.67
50632;BME280;49583;45.590;-122.498;2023-01-29T05:22:47;101693.40;;;3.63;57.57
50632;BME280;49583;45.590;-122.498;2023-01-29T05:25:01;101695.91;;;3.61;58.21
50632;BME280;49583;45.590;-122.498;2023-01-29T05:27:18;101703.80;;;3.58;57.65
50632;BME280;49583;45.590;-122.498;2023-01-29T05:29:48;101707.24;;;3.55;57.79
50632;BME280;49583;45.590;-122.498;2023-01-29T05:32:03;101717.34;;;3.53;57.56
50632;BME280;49583;45.590;-122.498;2023-01-29T05:34:16;101718.48;;;3.51;57.47
50632;BME280;49583;45.590;-122.498;2023-01-29T05:36:34;101725.23;;;3.48;57.06
50632;BME280;49583;45.590;-122.498;2023-01-29T05:38:52;101729.48;;;3.47;56.78
50632;BME280;49583;45.590;-122.498;2023-01-29T05:41:05;101729.49;;;3.45;56.58
50632;BME280;49583;45.590;-122.498;2023-01-29T05:43:22;101732.64;;;3.42;56.53
50632;BME280;49583;45.590;-122.498;2023-01-29T05:45:35;101746.92;;;3.39;55.37
50632;BME280;49583;45.590;-122.498;2023-01-29T05:47:48;101757.84;;;3.35;54.61
50632;BME280;49583;45.590;-122.498;2023-01-29T05:50:01;101747.29;;;3.31;54.98
50632;BME280;49583;45.590;-122.498;2023-01-29T05:52:15;101745.35;;;3.28;55.50
50632;BME280;49583;45.590;-122.498;2023-01-29T05:54:28;101749.86;;;3.25;55.15
50632;BME280;49583;45.590;-122.498;2023-01-29T05:56:41;101749.95;;;3.21;55.18
50632;BME280;49583;45.590;-122.498;2023-01-29T05:58:57;101740.79;;;3.18;54.28
50632;BME280;49583;45.590;-122.498;2023-01-29T06:01:16;101744.39;;;3.15;54.71
50632;BME280;49583;45.590;-122.498;2023-01-29T06:03:30;101745.86;;;3.11;54.63
50632;BME280;49583;45.590;-122.498;2023-01-29T06:05:45;101749.36;;;3.09;54.91
50632;BME280;49583;45.590;-122.498;2023-01-29T06:07:57;101748.19;;;3.06;54.74
50632;BME280;49583;45.590;-122.498;2023-01-29T06:10:15;101757.61;;;3.03;52.66
50632;BME280;49583;45.590;-122.498;2023-01-29T06:12:28;101749.77;;;2.99;52.25
50632;BME280;49583;45.590;-122.498;2023-01-29T06:14:44;101755.83;;;2.97;53.18
50632;BME280;49583;45.590;-122.498;2023-01-29T06:16:57;101764.83;;;2.95;53.52
50632;BME280;49583;45.590;-122.498;2023-01-29T06:19:10;101770.05;;;2.91;53.19
50632;BME280;49583;45.590;-122.498;2023-01-29T06:21:23;101780.89;;;2.87;52.86
50632;BME280;49583;45.590;-122.498;2023-01-29T06:23:35;101782.00;;;2.84;52.19
50632;BME280;49583;45.590;-122.498;2023-01-29T06:25:49;101792.67;;;2.82;52.31
50632;BME280;49583;45.590;-122.498;2023-01-29T06:28:03;101790.94;;;2.80;52.70
50632;BME280;49583;45.590;-122.498;2023-01-29T06:30:17;101792.88;;;2.78;52.89
50632;BME280;49583;45.590;-122.498;2023-01-29T06:32:31;101801.15;;;2.76;51.85
50632;BME280;49583;45.590;-122.498;2023-01-29T06:34:44;101812.08;;;2.73;51.18
50632;BME280;49583;45.590;-122.498;2023-01-29T06:36:58;101816.95;;;2.72;51.32
50632;BME280;49583;45.590;-122.498;2023-01-29T06:39:11;101820.23;;;2.70;51.82
50632;BME280;49583;45.590;-122.498;2023-01-29T06:41:24;101846.63;;;2.67;52.18
50632;BME280;49583;45.590;-122.498;2023-01-29T06:43:39;101850.58;;;2.64;51.76
50632;BME280;49583;45.590;-122.498;2023-01-29T06:45:53;101849.96;;;2.62;51.75
50632;BME280;49583;45.590;-122.498;2023-01-29T06:48:06;101868.84;;;2.61;52.19
50632;BME280;49583;45.590;-122.498;2023-01-29T06:50:20;101870.30;;;2.58;52.21
50632;BME280;49583;45.590;-122.498;2023-01-29T06:52:32;101880.10;;;2.55;50.92
50632;BME280;49583;45.590;-122.498;2023-01-29T06:54:45;101879.63;;;2.53;51.24
50632;BME280;49583;45.590;-122.498;2023-01-29T06:56:58;101883.84;;;2.51;51.78
50632;BME280;49583;45.590;-122.498;2023-01-29T06:59:12;101883.90;;;2.50;52.34
50632;BME280;49583;45.590;-122.498;2023-01-29T07:01:25;101890.45;;;2.49;51.76
50632;BME280;49583;45.590;-122.498;2023-01-29T07:03:47;101896.26;;;2.47;51.91
50632;BME280;49583;45.590;-122.498;2023-01-29T07:06:00;101896.20;;;2.45;51.31
50632;BME280;49583;45.590;-122.498;2023-01-29T07:08:13;101894.41;;;2.43;51.33
50632;BME280;49583;45.590;-122.498;2023-01-29T07:10:26;101899.77;;;2.41;51.43
50632;BME280;49583;45.590;-122.498;2023-01-29T07:12:39;101904.91;;;2.39;50.82
50632;BME280;49583;45.590;-122.498;2023-01-29T07:14:52;101912.11;;;2.36;51.02
50632;BME280;49583;45.590;-122.498;2023-01-29T07:17:04;101902.92;;;2.33;50.95
50632;BME280;49583;45.590;-122.498;2023-01-29T07:19:17;101912.56;;;2.31;50.97
50632;BME280;49583;45.590;-122.498;2023-01-29T07:21:33;101918.19;;;2.29;49.87
50632;BME280;49583;45.590;-122.498;2023-01-29T07:23:45;101909.20;;;2.25;49.80
50632;BME280;49583;45.590;-122.498;2023-01-29T07:26:04;101918.64;;;2.23;48.89
50632;BME280;49583;45.590;-122.498;2023-01-29T07:28:21;101918.70;;;2.21;49.14
50632;BME280;49583;45.590;-122.498;2023-01-29T07:30:37;101916.15;;;2.19;49.44
50632;BME280;49583;45.590;-122.498;2023-01-29T07:32:49;101915.66;;;2.18;49.00
50632;BME280;49583;45.590;-122.498;2023-01-29T07:35:02;101912.23;;;2.16;48.88
50632;BME280;49583;45.590;-122.498;2023-01-29T07:37:15;101914.39;;;2.14;48.76
50632;BME280;49583;45.590;-122.498;2023-01-29T07:39:28;101913.89;;;2.12;48.77
50632;BME280;49583;45.590;-122.498;2023-01-29T07:41:41;101922.48;;;2.11;49.09
50632;BME280;49583;45.590;-122.498;2023-01-29T07:43:57;101926.49;;;2.09;48.75
50632;BME280;49583;45.590;-122.498;2023-01-29T07:46:10;101917.31;;;2.06;47.76
50632;BME280;49583;45.590;-122.498;2023-01-29T07:48:22;101930.38;;;2.04;47.91
50632;BME280;49583;45.590;-122.498;2023-01-29T07:50:36;101945.56;;;2.02;47.31
50632;BME280;49583;45.590;-122.498;2023-01-29T07:52:52;101945.02;;;2.02;47.35
50632;BME280;49583;45.590;-122.498;2023-01-29T07:55:08;101942.44;;;1.99;47.89
50632;BME280;49583;45.590;-122.498;2023-01-29T07:57:21;101945.19;;;1.98;47.43
50632;BME280;49583;45.590;-122.498;2023-01-29T07:59:34;101945.40;;;1.97;47.70
50632;BME280;49583;45.590;-122.498;2023-01-29T08:01:50;101961.66;;;1.95;47.46
50632;BME280;49583;45.590;-122.498;2023-01-29T08:04:06;101961.66;;;1.92;47.59
50632;BME280;49583;45.590;-122.498;2023-01-29T08:06:22;101974.70;;;1.92;48.44
50632;BME280;49583;45.590;-122.498;2023-01-29T08:08:38;101969.23;;;1.90;47.52
50632;BME280;49583;45.590;-122.498;2023-01-29T08:10:54;101970.85;;;1.89;48.38
50632;BME280;49583;45.590;-122.498;2023-01-29T08:13:07;101966.90;;;1.87;48.01
50632;BME280;49583;45.590;-122.498;2023-01-29T08:15:20;101967.99;;;1.85;48.26
50632;BME280;49583;45.590;-122.498;2023-01-29T08:17:36;101970.48;;;1.82;47.91
50632;BME280;49583;45.590;-122.498;2023-01-29T08:20:11;101972.51;;;1.79;47.55
50632;BME280;49583;45.590;-122.498;2023-01-29T08:22:24;101975.06;;;1.76;48.11
50632;BME280;49583;45.590;-122.498;2023-01-29T08:24:37;101983.91;;;1.74;48.18
50632;BME280;49583;45.590;-122.498;2023-01-29T08:27:08;101994.64;;;1.72;47.46
50632;BME280;49583;45.590;-122.498;2023-01-29T08:29:23;101991.91;;;1.69;46.94
50632;BME280;49583;45.590;-122.498;2023-01-29T08:31:36;101985.03;;;1.67;47.17
50632;BME280;49583;45.590;-122.498;2023-01-29T08:33:50;101991.08;;;1.65;47.42
50632;BME280;49583;45.590;-122.498;2023-01-29T08:36:05;101993.17;;;1.64;46.54
50632;BME280;49583;45.590;-122.498;2023-01-29T08:38:17;101989.55;;;1.64;47.05
50632;BME280;49583;45.590;-122.498;2023-01-29T08:40:31;101991.02;;;1.63;47.27
50632;BME280;49583;45.590;-122.498;2023-01-29T08:42:47;101992.58;;;1.59;47.62
50632;BME280;49583;45.590;-122.498;2023-01-29T08:44:59;101999.42;;;1.57;47.67
50632;BME280;49583;45.590;-122.498;2023-01-29T08:47:12;102003.04;;;1.54;47.24
50632;BME280;49583;45.590;-122.498;2023-01-29T08:49:28;102001.10;;;1.52;47.25
50632;BME280;49583;45.590;-122.498;2023-01-29T08:51:41;102004.05;;;1.51;47.25
50632;BME280;49583;45.590;-122.498;2023-01-29T08:53:54;102007.35;;;1.49;47.22
50632;BME280;49583;45.590;-122.498;2023-01-29T08:56:11;102008.47;;;1.46;47.26
50632;BME280;49583;45.590;-122.498;2023-01-29T08:58:26;102007.99;;;1.46;47.46
50632;BME280;49583;45.590;-122.498;2023-01-29T09:00:39;102013.98;;;1.45;47.70
50632;BME280;49583;45.590;-122.498;2023-01-29T09:02:52;102019.09;;;1.42;47.63
50632;BME280;49583;45.590;-122.498;2023-01-29T09:05:08;102021.13;;;1.40;47.59
50632;BME280;49583;45.590;-122.498;2023-01-29T09:07:23;102032.10;;;1.38;47.04
50632;BME280;49583;45.590;-122.498;2023-01-29T09:09:36;102035.86;;;1.36;46.90
50632;BME280;49583;45.590;-122.498;2023-01-29T09:11:52;102031.63;;;1.33;46.82
50632;BME280;49583;45.590;-122.498;2023-01-29T09:14:05;102033.05;;;1.30;47.23
50632;BME280;49583;45.590;-122.498;2023-01-29T09:16:21;102030.70;;;1.27;45.87
50632;BME280;49583;45.590;-122.498;2023-01-29T09:18:36;102044.40;;;1.26;46.21
50632;BME280;49583;45.590;-122.498;2023-01-29T09:20:49;102048.02;;;1.24;45.92
50632;BME280;49583;45.590;-122.498;2023-01-29T09:23:05;102057.40;;;1.23;45.82
50632;BME280;49583;45.590;-122.498;2023-01-29T09:25:21;102064.08;;;1.22;45.57
50632;BME280;49583;45.590;-122.498;2023-01-29T09:27:34;102070.77;;;1.21;46.00
50632;BME280;49583;45.590;-122.498;2023-01-29T09:29:47;102079.23;;;1.20;46.10
50632;BME280;49583;45.590;-122.498;2023-01-29T09:32:00;102083.86;;;1.19;46.31
50632;BME280;49583;45.590;-122.498;2023-01-29T09:34:17;102086.81;;;1.16;46.46
50632;BME280;49583;45.590;-122.498;2023-01-29T09:36:30;102094.87;;;1.16;46.81
50632;BME280;49583;45.590;-122.498;2023-01-29T09:38:43;102095.47;;;1.14;46.77
50632;BME280;49583;45.590;-122.498;2023-01-29T09:41:07;102105.74;;;1.12;46.14
50632;BME280;49583;45.590;-122.498;2023-01-29T09:43:30;102104.87;;;1.11;46.26
50632;BME280;49583;45.590;-122.498;2023-01-29T09:45:55;102109.11;;;1.08;46.40
50632;BME280;49583;45.590;-122.498;2023-01-29T09:48:11;102102.86;;;1.08;45.93
50632;BME280;49583;45.590;-122.498;2023-01-29T09:50:30;102097.79;;;1.06;44.91
50632;BME280;49583;45.590;-122.498;2023-01-29T09:52:50;102115.04;;;1.05;44.90
50632;BME280;49583;45.590;-122.498;2023-01-29T09:55:09;102102.67;;;1.04;44.93
50632;BME280;49583;45.590;-122.498;2023-01-29T09:57:30;102109.45;;;1.03;45.11
50632;BME280;49583;45.590;-122.498;2023-01-29T09:59:45;102115.64;;;1.00;44.15
50632;BME280;49583;45.590;-122.498;2023-01-29T10:02:08;102122.23;;;1.00;44.27
50632;BME280;49583;45.590;-122.498;2023-01-29T10:07:16;102129.80;;;0.96;44.67
50632;BME280;49583;45.590;-122.498;2023-01-29T10:12:39;102138.55;;;0.89;45.25
50632;BME280;49583;45.590;-122.498;2023-01-29T10:15:00;102145.21;;;0.86;45.01
50632;BME280;49583;45.590;-122.498;2023-01-29T10:17:26;102148.45;;;0.84;45.08
50632;BME280;49583;45.590;-122.498;2023-01-29T10:20:09;102148.16;;;0.82;45.22
50632;BME280;49583;45.590;-122.498;2023-01-29T10:22:47;102160.81;;;0.80;45.25
50632;BME280;49583;45.590;-122.498;2023-01-29T10:25:05;102162.46;;;0.78;44.51
50632;BME280;49583;45.590;-122.498;2023-01-29T10:27:18;102162.79;;;0.76;45.33
50632;BME280;49583;45.590;-122.498;2023-01-29T10:29:32;102164.12;;;0.74;45.08
50632;BME280;49583;45.590;-122.498;2023-01-29T10:31:51;102163.99;;;0.73;44.67
50632;BME280;49583;45.590;-122.498;2023-01-29T10:34:09;102171.63;;;0.71;44.34
50632;BME280;49583;45.590;-122.498;2023-01-29T10:36:31;102180.52;;;0.70;44.94
50632;BME280;49583;45.590;-122.498;2023-01-29T10:38:50;102181.70;;;0.68;44.72
50632;BME280;49583;45.590;-122.498;2023-01-29T10:41:17;102175.14;;;0.66;44.92
50632;BME280;49583;45.590;-122.498;2023-01-29T10:43:37;102183.55;;;0.65;44.20
50632;BME280;49583;45.590;-122.498;2023-01-29T10:45:58;102187.98;;;0.63;44.14
50632;BME280;49583;45.590;-122.498;2023-01-29T10:48:43;102185.30;;;0.60;44.55
50632;BME280;49583;45.590;-122.498;2023-01-29T10:51:02;102184.61;;;0.58;44.22
50632;BME280;49583;45.590;-122.498;2023-01-29T10:53:47;102189.17;;;0.56;43.80
50632;BME280;49583;45.590;-122.498;2023-01-29T10:56:18;102194.02;;;0.54;44.65
50632;BME280;49583;45.590;-122.498;2023-01-29T10:58:37;102190.42;;;0.51;43.98
50632;BME280;49583;45.590;-122.498;2023-01-29T11:00:54;102204.96;;;0.50;44.11
50632;BME280;49583;45.590;-122.498;2023-01-29T11:03:15;102202.79;;;0.48;43.99
50632;BME280;49583;45.590;-122.498;2023-01-29T11:05:40;102205.05;;;0.46;44.22
50632;BME280;49583;45.590;-122.498;2023-01-29T11:08:05;102204.66;;;0.45;44.12
50632;BME280;49583;45.590;-122.498;2023-01-29T11:10:21;102208.69;;;0.44;43.38
50632;BME280;49583;45.590;-122.498;2023-01-29T11:12:35;102208.67;;;0.43;43.61
50632;BME280;49583;45.590;-122.498;2023-01-29T11:14:50;102214.52;;;0.41;44.56
50632;BME280;49583;45.590;-122.498;2023-01-29T11:17:04;102218.80;;;0.38;44.62
50632;BME280;49583;45.590;-122.498;2023-01-29T11:19:17;102225.88;;;0.38;44.67
50632;BME280;49583;45.590;-122.498;2023-01-29T11:21:55;102229.33;;;0.37;44.15
50632;BME280;49583;45.590;-122.498;2023-01-29T11:24:13;102233.72;;;0.35;44.66
50632;BME280;49583;45.590;-122.498;2023-01-29T11:26:26;102241.43;;;0.35;44.49
50632;BME280;49583;45.590;-122.498;2023-01-29T11:28:40;102234.99;;;0.34;44.76
50632;BME280;49583;45.590;-122.498;2023-01-29T11:30:54;102235.51;;;0.32;44.01
50632;BME280;49583;45.590;-122.498;2023-01-29T11:33:11;102238.24;;;0.31;43.85
50632;BME280;49583;45.590;-122.498;2023-01-29T11:35:31;102243.40;;;0.29;44.21
50632;BME280;49583;45.590;-122.498;2023-01-29T11:37:46;102255.67;;;0.28;44.16
50632;BME280;49583;45.590;-122.498;2023-01-29T11:39:59;102261.22;;;0.25;44.43
50632;BME280;49583;45.590;-122.498;2023-01-29T11:42:20;102267.08;;;0.23;44.16
50632;BME280;49583;45.590;-122.498;2023-01-29T11:44:35;102267.06;;;0.21;44.05
50632;BME280;49583;45.590;-122.498;2023-01-29T11:46:55;102270.83;;;0.20;44.07
50632;BME280;49583;45.590;-122.498;2023-01-29T11:49:26;102272.65;;;0.20;44.50